sensor_id;sensor_type;location;lat;lon;timestamp;P1;durP1;ratioP1;P2;durP2;ratioP2
11042;SDS011;5574;48.786;10.120;2022-09-09T00:02:09;3.42;;;1.30;;
11042;SDS011;5574;48.786;10.120;2022-09-09T00:04:44;2.03;;;1.25;;
11042;SDS011;5574;48.786;10.120;2022-09-09T00:07:20;1.50;;;1.20;;
11042;SDS011;5574;48.786;10.120;2022-09-09T00:09:53;5.00;;;1.40;;
11042;SDS011;5574;48.786;10.120;2022-09-09T00:12:34;2.40;;;1.40;;
11042;SDS011;5574;48.786;10.120;2022-09-09T00:15:11;2.45;;;1.10;;
11042;SDS011;5574;48.786;10.120;2022-09-09T00:17:42;1.48;;;1.23;;
11042;SDS011;5574;48.786;10.120;2022-09-09T00:20:14;3.35;;;1.40;;
11042;SDS011;5574;48.786;10.120;2022-09-09T00:22:47;3.42;;;1.20;;
11042;SDS011;5574;48.786;10.120;2022-09-09T00:25:23;2.65;;;1.20;;
11042;SDS011;5574;48.786;10.120;2022-09-09T00:27:55;2.88;;;1.35;;
11042;SDS011;5574;48.786;10.120;2022-09-09T00:30:23;2.03;;;1.33;;
11042;SDS011;5574;48.786;10.120;2022-09-09T00:32:53;1.40;;;1.20;;
11042;SDS011;5574;48.786;10.120;2022-09-09T00:35:24;5.95;;;1.17;;
11042;SDS011;5574;48.786;10.120;2022-09-09T00:37:54;4.10;;;1.10;;
11042;SDS011;5574;48.786;10.120;2022-09-09T00:40:27;2.58;;;1.40;;
11042;SDS011;5574;48.786;10.120;2022-09-09T00:43:03;3.60;;;1.25;;
11042;SDS011;5574;48.786;10.120;2022-09-09T00:45:52;2.85;;;1.20;;
11042;SDS011;5574;48.786;10.120;2022-09-09T00:48:34;4.07;;;1.20;;
11042;SDS011;5574;48.786;10.120;2022-09-09T00:51:13;1.45;;;1.10;;
11042;SDS011;5574;48.786;10.120;2022-09-09T00:53:54;2.92;;;1.27;;
11042;SDS011;5574;48.786;10.120;2022-09-09T00:56:39;2.67;;;1.33;;
11042;SDS011;5574;48.786;10.120;2022-09-09T00:59:14;2.38;;;1.35;;
11042;SDS011;5574;48.786;10.120;2022-09-09T01:01:47;6.25;;;1.40;;
11042;SDS011;5574;48.786;10.120;2022-09-09T01:04:16;2.10;;;1.05;;
11042;SDS011;5574;48.786;10.120;2022-09-09T01:06:47;3.33;;;1.38;;
11042;SDS011;5574;48.786;10.120;2022-09-09T01:09:18;5.03;;;1.85;;
11042;SDS011;5574;48.786;10.120;2022-09-09T01:11:55;5.38;;;1.50;;
11042;SDS011;5574;48.786;10.120;2022-09-09T01:14:29;2.45;;;1.15;;
11042;SDS011;5574;48.786;10.120;2022-09-09T01:17:05;4.43;;;1.20;;
11042;SDS011;5574;48.786;10.120;2022-09-09T01:19:39;3.38;;;1.42;;
11042;SDS011;5574;48.786;10.120;2022-09-09T01:22:15;2.40;;;1.35;;
11042;SDS011;5574;48.786;10.120;2022-09-09T01:25:02;4.53;;;1.50;;
11042;SDS011;5574;48.786;10.120;2022-09-09T01:27:47;1.92;;;1.30;;
11042;SDS011;5574;48.786;10.120;2022-09-09T01:30:16;2.47;;;1.70;;
11042;SDS011;5574;48.786;10.120;2022-09-09T01:32:44;2.22;;;1.50;;
11042;SDS011;5574;48.786;10.120;2022-09-09T01:35:15;4.28;;;1.35;;
11042;SDS011;5574;48.786;10.120;2022-09-09T01:37:50;3.40;;;1.50;;
11042;SDS011;5574;48.786;10.120;2022-09-09T01:40:16;2.30;;;1.50;;
11042;SDS011;5574;48.786;10.120;2022-09-09T01:42:43;3.85;;;1.65;;
11042;SDS011;5574;48.786;10.120;2022-09-09T01:45:11;4.65;;;1.20;;
11042;SDS011;5574;48.786;10.120;2022-09-09T01:47:38;3.40;;;1.98;;
11042;SDS011;5574;48.786;10.120;2022-09-09T01:50:06;2.08;;;1.45;;
11042;SDS011;5574;48.786;10.120;2022-09-09T01:52:36;4.45;;;1.90;;
11042;SDS011;5574;48.786;10.120;2022-09-09T01:55:03;3.92;;;1.52;;
11042;SDS011;5574;48.786;10.120;2022-09-09T01:57:33;4.60;;;1.77;;
11042;SDS011;5574;48.786;10.120;2022-09-09T02:00:06;4.97;;;1.50;;
11042;SDS011;5574;48.786;10.120;2022-09-09T02:02:36;6.45;;;1.30;;
11042;SDS011;5574;48.786;10.120;2022-09-09T02:05:12;2.60;;;1.33;;
11042;SDS011;5574;48.786;10.120;2022-09-09T02:07:51;4.07;;;1.70;;
11042;SDS011;5574;48.786;10.120;2022-09-09T02:10:24;2.97;;;1.40;;
11042;SDS011;5574;48.786;10.120;2022-09-09T02:12:58;2.00;;;1.35;;
11042;SDS011;5574;48.786;10.120;2022-09-09T02:15:30;3.30;;;1.60;;
11042;SDS011;5574;48.786;10.120;2022-09-09T02:18:02;2.80;;;1.48;;
11042;SDS011;5574;48.786;10.120;2022-09-09T02:20:33;3.20;;;1.75;;
11042;SDS011;5574;48.786;10.120;2022-09-09T02:23:03;2.72;;;1.50;;
11042;SDS011;5574;48.786;10.120;2022-09-09T02:25:32;4.05;;;1.60;;
11042;SDS011;5574;48.786;10.120;2022-09-09T02:28:01;4.25;;;1.58;;
11042;SDS011;5574;48.786;10.120;2022-09-09T02:30:30;1.80;;;1.52;;
11042;SDS011;5574;48.786;10.120;2022-09-09T02:33:00;6.22;;;1.48;;
11042;SDS011;5574;48.786;10.120;2022-09-09T02:35:31;4.55;;;1.75;;
11042;SDS011;5574;48.786;10.120;2022-09-09T02:38:02;6.00;;;1.70;;
11042;SDS011;5574;48.786;10.120;2022-09-09T02:40:35;2.28;;;1.70;;
11042;SDS011;5574;48.786;10.120;2022-09-09T02:43:01;5.47;;;1.58;;
11042;SDS011;5574;48.786;10.120;2022-09-09T02:45:31;2.47;;;1.30;;
11042;SDS011;5574;48.786;10.120;2022-09-09T02:48:07;4.13;;;1.48;;
11042;SDS011;5574;48.786;10.120;2022-09-09T02:50:39;2.03;;;1.63;;
11042;SDS011;5574;48.786;10.120;2022-09-09T02:53:16;3.00;;;1.55;;
11042;SDS011;5574;48.786;10.120;2022-09-09T02:55:46;4.95;;;1.52;;
11042;SDS011;5574;48.786;10.120;2022-09-09T02:58:15;3.67;;;1.67;;
11042;SDS011;5574;48.786;10.120;2022-09-09T03:00:44;4.78;;;1.92;;
11042;SDS011;5574;48.786;10.120;2022-09-09T03:03:14;4.78;;;1.90;;
11042;SDS011;5574;48.786;10.120;2022-09-09T03:05:42;5.03;;;1.70;;
11042;SDS011;5574;48.786;10.120;2022-09-09T03:08:09;2.83;;;1.88;;
11042;SDS011;5574;48.786;10.120;2022-09-09T03:10:37;5.35;;;1.90;;
11042;SDS011;5574;48.786;10.120;2022-09-09T03:13:04;3.00;;;1.60;;
11042;SDS011;5574;48.786;10.120;2022-09-09T03:15:32;8.07;;;2.20;;
11042;SDS011;5574;48.786;10.120;2022-09-09T03:17:58;2.47;;;1.60;;
11042;SDS011;5574;48.786;10.120;2022-09-09T03:20:27;3.55;;;1.70;;
11042;SDS011;5574;48.786;10.120;2022-09-09T03:22:55;4.50;;;1.73;;
11042;SDS011;5574;48.786;10.120;2022-09-09T03:25:22;3.20;;;1.60;;
11042;SDS011;5574;48.786;10.120;2022-09-09T03:27:50;3.38;;;1.50;;
11042;SDS011;5574;48.786;10.120;2022-09-09T03:30:19;3.22;;;1.70;;
11042;SDS011;5574;48.786;10.120;2022-09-09T03:32:45;2.92;;;1.70;;
11042;SDS011;5574;48.786;10.120;2022-09-09T03:35:13;3.75;;;1.38;;
11042;SDS011;5574;48.786;10.120;2022-09-09T03:37:41;2.40;;;1.40;;
11042;SDS011;5574;48.786;10.120;2022-09-09T03:40:08;3.45;;;1.70;;
11042;SDS011;5574;48.786;10.120;2022-09-09T03:42:36;4.53;;;1.58;;
11042;SDS011;5574;48.786;10.120;2022-09-09T03:45:03;2.75;;;1.42;;
11042;SDS011;5574;48.786;10.120;2022-09-09T03:47:31;4.43;;;1.70;;
11042;SDS011;5574;48.786;10.120;2022-09-09T03:49:58;3.88;;;1.60;;
11042;SDS011;5574;48.786;10.120;2022-09-09T03:52:24;5.93;;;1.58;;
11042;SDS011;5574;48.786;10.120;2022-09-09T03:54:53;3.88;;;1.58;;
11042;SDS011;5574;48.786;10.120;2022-09-09T03:57:21;5.30;;;1.75;;
11042;SDS011;5574;48.786;10.120;2022-09-09T03:59:48;4.88;;;1.65;;
11042;SDS011;5574;48.786;10.120;2022-09-09T04:02:14;3.85;;;1.55;;
11042;SDS011;5574;48.786;10.120;2022-09-09T04:04:41;3.35;;;1.65;;
11042;SDS011;5574;48.786;10.120;2022-09-09T04:07:08;2.85;;;1.50;;
11042;SDS011;5574;48.786;10.120;2022-09-09T04:09:34;3.72;;;1.50;;
11042;SDS011;5574;48.786;10.120;2022-09-09T04:12:03;4.20;;;1.95;;
11042;SDS011;5574;48.786;10.120;2022-09-09T04:14:31;4.00;;;1.88;;
11042;SDS011;5574;48.786;10.120;2022-09-09T04:16:57;3.63;;;1.70;;
11042;SDS011;5574;48.786;10.120;2022-09-09T04:19:24;1.70;;;1.33;;
11042;SDS011;5574;48.786;10.120;2022-09-09T04:21:51;3.03;;;1.67;;
11042;SDS011;5574;48.786;10.120;2022-09-09T04:24:18;2.60;;;1.40;;
11042;SDS011;5574;48.786;10.120;2022-09-09T04:26:45;4.00;;;1.50;;
11042;SDS011;5574;48.786;10.120;2022-09-09T04:29:13;4.45;;;1.70;;
11042;SDS011;5574;48.786;10.120;2022-09-09T04:31:40;5.95;;;1.90;;
11042;SDS011;5574;48.786;10.120;2022-09-09T04:34:07;4.53;;;1.50;;
11042;SDS011;5574;48.786;10.120;2022-09-09T04:36:34;4.72;;;1.60;;
11042;SDS011;5574;48.786;10.120;2022-09-09T04:39:01;3.45;;;1.60;;
11042;SDS011;5574;48.786;10.120;2022-09-09T04:41:28;3.35;;;1.63;;
11042;SDS011;5574;48.786;10.120;2022-09-09T04:43:56;5.85;;;1.63;;
11042;SDS011;5574;48.786;10.120;2022-09-09T04:46:25;2.05;;;1.45;;
11042;SDS011;5574;48.786;10.120;2022-09-09T04:48:52;3.90;;;1.60;;
11042;SDS011;5574;48.786;10.120;2022-09-09T04:51:19;4.22;;;1.70;;
11042;SDS011;5574;48.786;10.120;2022-09-09T04:53:46;3.38;;;1.58;;
11042;SDS011;5574;48.786;10.120;2022-09-09T04:56:14;3.50;;;1.67;;
11042;SDS011;5574;48.786;10.120;2022-09-09T04:58:42;4.13;;;1.58;;
11042;SDS011;5574;48.786;10.120;2022-09-09T05:01:09;4.47;;;1.50;;
11042;SDS011;5574;48.786;10.120;2022-09-09T05:03:38;3.53;;;1.67;;
11042;SDS011;5574;48.786;10.120;2022-09-09T05:06:06;9.35;;;2.10;;
11042;SDS011;5574;48.786;10.120;2022-09-09T05:08:34;7.05;;;2.08;;
11042;SDS011;5574;48.786;10.120;2022-09-09T05:11:01;3.90;;;1.60;;
11042;SDS011;5574;48.786;10.120;2022-09-09T05:13:28;3.97;;;1.67;;
11042;SDS011;5574;48.786;10.120;2022-09-09T05:15:56;4.55;;;1.65;;
11042;SDS011;5574;48.786;10.120;2022-09-09T05:18:23;3.05;;;1.73;;
11042;SDS011;5574;48.786;10.120;2022-09-09T05:20:51;4.90;;;1.90;;
11042;SDS011;5574;48.786;10.120;2022-09-09T05:23:17;1.83;;;1.50;;
11042;SDS011;5574;48.786;10.120;2022-09-09T05:25:53;2.13;;;1.60;;
11042;SDS011;5574;48.786;10.120;2022-09-09T05:28:21;4.40;;;1.63;;
11042;SDS011;5574;48.786;10.120;2022-09-09T05:30:54;2.55;;;1.60;;
11042;SDS011;5574;48.786;10.120;2022-09-09T05:33:22;4.43;;;1.95;;
11042;SDS011;5574;48.786;10.120;2022-09-09T05:35:55;2.63;;;1.60;;
11042;SDS011;5574;48.786;10.120;2022-09-09T05:38:26;4.32;;;1.70;;
11042;SDS011;5574;48.786;10.120;2022-09-09T05:40:53;1.73;;;1.63;;
11042;SDS011;5574;48.786;10.120;2022-09-09T05:43:21;4.63;;;1.60;;
11042;SDS011;5574;48.786;10.120;2022-09-09T05:45:47;4.50;;;1.80;;
11042;SDS011;5574;48.786;10.120;2022-09-09T05:48:27;3.22;;;1.90;;
11042;SDS011;5574;48.786;10.120;2022-09-09T05:50:55;6.18;;;2.10;;
11042;SDS011;5574;48.786;10.120;2022-09-09T05:53:22;5.93;;;1.90;;
11042;SDS011;5574;48.786;10.120;2022-09-09T05:55:49;6.65;;;2.28;;
11042;SDS011;5574;48.786;10.120;2022-09-09T05:58:15;6.97;;;2.00;;
11042;SDS011;5574;48.786;10.120;2022-09-09T06:00:43;3.05;;;1.90;;
11042;SDS011;5574;48.786;10.120;2022-09-09T06:03:10;5.32;;;2.15;;
11042;SDS011;5574;48.786;10.120;2022-09-09T06:05:37;2.40;;;1.90;;
11042;SDS011;5574;48.786;10.120;2022-09-09T06:08:05;4.45;;;2.22;;
11042;SDS011;5574;48.786;10.120;2022-09-09T06:10:32;2.83;;;1.83;;
11042;SDS011;5574;48.786;10.120;2022-09-09T06:12:59;8.25;;;2.40;;
11042;SDS011;5574;48.786;10.120;2022-09-09T06:15:26;8.05;;;2.10;;
11042;SDS011;5574;48.786;10.120;2022-09-09T06:17:55;19.25;;;3.60;;
11042;SDS011;5574;48.786;10.120;2022-09-09T06:20:22;20.77;;;3.70;;
11042;SDS011;5574;48.786;10.120;2022-09-09T06:22:49;4.20;;;2.13;;
11042;SDS011;5574;48.786;10.120;2022-09-09T06:25:17;5.45;;;1.90;;
11042;SDS011;5574;48.786;10.120;2022-09-09T06:27:47;4.00;;;1.60;;
11042;SDS011;5574;48.786;10.120;2022-09-09T06:30:15;8.45;;;2.22;;
11042;SDS011;5574;48.786;10.120;2022-09-09T06:32:43;2.67;;;1.85;;
11042;SDS011;5574;48.786;10.120;2022-09-09T06:35:10;3.00;;;1.85;;
11042;SDS011;5574;48.786;10.120;2022-09-09T06:37:36;4.75;;;1.80;;
11042;SDS011;5574;48.786;10.120;2022-09-09T06:40:03;16.10;;;3.17;;
11042;SDS011;5574;48.786;10.120;2022-09-09T06:42:32;5.45;;;2.22;;
11042;SDS011;5574;48.786;10.120;2022-09-09T06:44:58;6.05;;;2.28;;
11042;SDS011;5574;48.786;10.120;2022-09-09T06:47:25;4.80;;;2.38;;
11042;SDS011;5574;48.786;10.120;2022-09-09T06:49:53;5.20;;;1.77;;
11042;SDS011;5574;48.786;10.120;2022-09-09T06:52:21;6.38;;;2.20;;
11042;SDS011;5574;48.786;10.120;2022-09-09T06:54:49;3.42;;;2.08;;
11042;SDS011;5574;48.786;10.120;2022-09-09T06:57:16;8.27;;;2.90;;
11042;SDS011;5574;48.786;10.120;2022-09-09T06:59:44;4.63;;;2.53;;
11042;SDS011;5574;48.786;10.120;2022-09-09T07:02:10;6.18;;;2.20;;
11042;SDS011;5574;48.786;10.120;2022-09-09T07:04:37;4.43;;;2.47;;
11042;SDS011;5574;48.786;10.120;2022-09-09T07:07:04;7.00;;;2.50;;
11042;SDS011;5574;48.786;10.120;2022-09-09T07:09:30;8.38;;;2.30;;
11042;SDS011;5574;48.786;10.120;2022-09-09T07:11:57;5.30;;;1.60;;
11042;SDS011;5574;48.786;10.120;2022-09-09T07:14:24;6.68;;;2.40;;
11042;SDS011;5574;48.786;10.120;2022-09-09T07:16:53;7.45;;;2.30;;
11042;SDS011;5574;48.786;10.120;2022-09-09T07:19:20;4.57;;;2.15;;
11042;SDS011;5574;48.786;10.120;2022-09-09T07:21:46;5.60;;;2.20;;
11042;SDS011;5574;48.786;10.120;2022-09-09T07:24:13;6.55;;;2.42;;
11042;SDS011;5574;48.786;10.120;2022-09-09T07:26:40;8.07;;;2.03;;
11042;SDS011;5574;48.786;10.120;2022-09-09T07:29:07;11.95;;;2.53;;
11042;SDS011;5574;48.786;10.120;2022-09-09T07:31:35;9.73;;;2.35;;
11042;SDS011;5574;48.786;10.120;2022-09-09T07:34:04;3.33;;;2.10;;
11042;SDS011;5574;48.786;10.120;2022-09-09T07:36:32;3.67;;;1.80;;
11042;SDS011;5574;48.786;10.120;2022-09-09T07:39:01;2.83;;;1.70;;
11042;SDS011;5574;48.786;10.120;2022-09-09T07:41:30;2.28;;;1.63;;
11042;SDS011;5574;48.786;10.120;2022-09-09T07:43:59;2.60;;;1.63;;
11042;SDS011;5574;48.786;10.120;2022-09-09T07:46:29;6.18;;;1.80;;
11042;SDS011;5574;48.786;10.120;2022-09-09T07:48:56;2.85;;;1.65;;
11042;SDS011;5574;48.786;10.120;2022-09-09T07:51:25;2.20;;;1.23;;
11042;SDS011;5574;48.786;10.120;2022-09-09T07:53:54;3.05;;;1.35;;
11042;SDS011;5574;48.786;10.120;2022-09-09T07:56:23;4.32;;;1.45;;
11042;SDS011;5574;48.786;10.120;2022-09-09T07:58:51;3.08;;;1.05;;
11042;SDS011;5574;48.786;10.120;2022-09-09T08:01:20;3.75;;;1.60;;
11042;SDS011;5574;48.786;10.120;2022-09-09T08:03:52;2.17;;;0.85;;
11042;SDS011;5574;48.786;10.120;2022-09-09T08:06:20;2.40;;;1.25;;
11042;SDS011;5574;48.786;10.120;2022-09-09T08:08:51;1.88;;;1.10;;
11042;SDS011;5574;48.786;10.120;2022-09-09T08:11:18;2.55;;;1.13;;
11042;SDS011;5574;48.786;10.120;2022-09-09T08:13:45;1.63;;;1.13;;
11042;SDS011;5574;48.786;10.120;2022-09-09T08:16:13;18.55;;;2.90;;
11042;SDS011;5574;48.786;10.120;2022-09-09T08:18:41;9.13;;;2.10;;
11042;SDS011;5574;48.786;10.120;2022-09-09T08:21:10;7.10;;;1.95;;
11042;SDS011;5574;48.786;10.120;2022-09-09T08:23:38;5.25;;;2.35;;
11042;SDS011;5574;48.786;10.120;2022-09-09T08:26:09;3.10;;;1.02;;
11042;SDS011;5574;48.786;10.120;2022-09-09T08:28:37;3.47;;;1.42;;
11042;SDS011;5574;48.786;10.120;2022-09-09T08:31:05;4.22;;;1.50;;
11042;SDS011;5574;48.786;10.120;2022-09-09T08:33:36;2.22;;;0.85;;
11042;SDS011;5574;48.786;10.120;2022-09-09T08:36:04;4.00;;;1.08;;
11042;SDS011;5574;48.786;10.120;2022-09-09T08:38:33;3.08;;;1.10;;
11042;SDS011;5574;48.786;10.120;2022-09-09T08:41:04;3.67;;;1.20;;
11042;SDS011;5574;48.786;10.120;2022-09-09T08:43:48;1.63;;;0.93;;
11042;SDS011;5574;48.786;10.120;2022-09-09T08:46:19;9.57;;;1.83;;
11042;SDS011;5574;48.786;10.120;2022-09-09T08:48:52;6.03;;;1.48;;
11042;SDS011;5574;48.786;10.120;2022-09-09T08:51:23;2.08;;;1.02;;
11042;SDS011;5574;48.786;10.120;2022-09-09T08:53:53;2.00;;;1.17;;
11042;SDS011;5574;48.786;10.120;2022-09-09T08:56:26;2.63;;;0.90;;
11042;SDS011;5574;48.786;10.120;2022-09-09T08:58:54;1.63;;;1.10;;
11042;SDS011;5574;48.786;10.120;2022-09-09T09:01:26;2.75;;;1.38;;
11042;SDS011;5574;48.786;10.120;2022-09-09T09:04:11;2.67;;;1.10;;
11042;SDS011;5574;48.786;10.120;2022-09-09T09:06:53;4.80;;;1.60;;
11042;SDS011;5574;48.786;10.120;2022-09-09T09:09:30;3.63;;;1.40;;
11042;SDS011;5574;48.786;10.120;2022-09-09T09:12:10;3.90;;;1.70;;
11042;SDS011;5574;48.786;10.120;2022-09-09T09:14:44;3.33;;;1.02;;
11042;SDS011;5574;48.786;10.120;2022-09-09T09:17:14;3.58;;;1.30;;
11042;SDS011;5574;48.786;10.120;2022-09-09T09:19:42;1.02;;;0.90;;
11042;SDS011;5574;48.786;10.120;2022-09-09T09:22:14;2.30;;;1.00;;
11042;SDS011;5574;48.786;10.120;2022-09-09T09:24:49;1.88;;;1.35;;
11042;SDS011;5574;48.786;10.120;2022-09-09T09:27:21;3.05;;;1.08;;
11042;SDS011;5574;48.786;10.120;2022-09-09T09:29:56;2.53;;;1.30;;
11042;SDS011;5574;48.786;10.120;2022-09-09T09:32:26;3.35;;;1.20;;
11042;SDS011;5574;48.786;10.120;2022-09-09T09:34:57;2.22;;;1.30;;
11042;SDS011;5574;48.786;10.120;2022-09-09T09:37:26;1.85;;;1.00;;
11042;SDS011;5574;48.786;10.120;2022-09-09T09:39:55;9.57;;;1.80;;
11042;SDS011;5574;48.786;10.120;2022-09-09T09:42:23;3.45;;;1.40;;
11042;SDS011;5574;48.786;10.120;2022-09-09T09:44:50;2.78;;;1.10;;
11042;SDS011;5574;48.786;10.120;2022-09-09T09:47:18;4.70;;;1.48;;
11042;SDS011;5574;48.786;10.120;2022-09-09T09:49:52;6.03;;;1.52;;
11042;SDS011;5574;48.786;10.120;2022-09-09T09:52:21;1.90;;;1.08;;
11042;SDS011;5574;48.786;10.120;2022-09-09T09:54:50;10.80;;;1.90;;
11042;SDS011;5574;48.786;10.120;2022-09-09T09:57:18;3.65;;;1.30;;
11042;SDS011;5574;48.786;10.120;2022-09-09T10:00:00;4.47;;;1.10;;
11042;SDS011;5574;48.786;10.120;2022-09-09T10:02:31;4.20;;;1.98;;
11042;SDS011;5574;48.786;10.120;2022-09-09T10:05:04;1.77;;;1.10;;
11042;SDS011;5574;48.786;10.120;2022-09-09T10:07:38;2.72;;;1.08;;
11042;SDS011;5574;48.786;10.120;2022-09-09T10:10:05;3.35;;;1.20;;
11042;SDS011;5574;48.786;10.120;2022-09-09T10:12:42;8.20;;;1.42;;
11042;SDS011;5574;48.786;10.120;2022-09-09T10:15:21;2.90;;;1.20;;
11042;SDS011;5574;48.786;10.120;2022-09-09T10:17:57;4.50;;;1.48;;
11042;SDS011;5574;48.786;10.120;2022-09-09T10:20:30;2.08;;;1.10;;
11042;SDS011;5574;48.786;10.120;2022-09-09T10:23:07;2.33;;;1.20;;
11042;SDS011;5574;48.786;10.120;2022-09-09T10:25:51;3.30;;;1.17;;
11042;SDS011;5574;48.786;10.120;2022-09-09T10:28:33;2.78;;;1.27;;
11042;SDS011;5574;48.786;10.120;2022-09-09T10:31:16;1.70;;;1.05;;
11042;SDS011;5574;48.786;10.120;2022-09-09T10:33:49;1.65;;;1.05;;
11042;SDS011;5574;48.786;10.120;2022-09-09T10:36:19;3.40;;;1.20;;
11042;SDS011;5574;48.786;10.120;2022-09-09T10:38:48;4.05;;;0.98;;
11042;SDS011;5574;48.786;10.120;2022-09-09T10:41:24;1.83;;;1.00;;
11042;SDS011;5574;48.786;10.120;2022-09-09T10:44:05;1.58;;;1.00;;
11042;SDS011;5574;48.786;10.120;2022-09-09T10:46:45;1.15;;;1.05;;
11042;SDS011;5574;48.786;10.120;2022-09-09T10:49:26;3.85;;;0.90;;
11042;SDS011;5574;48.786;10.120;2022-09-09T10:52:04;2.85;;;1.10;;
11042;SDS011;5574;48.786;10.120;2022-09-09T10:54:43;3.13;;;1.20;;
11042;SDS011;5574;48.786;10.120;2022-09-09T10:57:24;2.78;;;1.20;;
11042;SDS011;5574;48.786;10.120;2022-09-09T10:59:57;4.38;;;1.15;;
11042;SDS011;5574;48.786;10.120;2022-09-09T11:02:29;1.67;;;0.90;;
11042;SDS011;5574;48.786;10.120;2022-09-09T11:04:58;2.45;;;1.00;;
11042;SDS011;5574;48.786;10.120;2022-09-09T11:07:29;1.25;;;0.90;;
11042;SDS011;5574;48.786;10.120;2022-09-09T11:10:04;2.45;;;1.10;;
11042;SDS011;5574;48.786;10.120;2022-09-09T11:12:41;1.58;;;1.20;;
11042;SDS011;5574;48.786;10.120;2022-09-09T11:15:15;2.35;;;1.10;;
11042;SDS011;5574;48.786;10.120;2022-09-09T11:17:46;1.60;;;1.08;;
11042;SDS011;5574;48.786;10.120;2022-09-09T11:20:15;3.17;;;0.90;;
11042;SDS011;5574;48.786;10.120;2022-09-09T11:22:44;3.15;;;0.82;;
11042;SDS011;5574;48.786;10.120;2022-09-09T11:25:16;2.13;;;0.98;;
11042;SDS011;5574;48.786;10.120;2022-09-09T11:27:51;1.33;;;0.90;;
11042;SDS011;5574;48.786;10.120;2022-09-09T11:30:30;2.92;;;0.70;;
11042;SDS011;5574;48.786;10.120;2022-09-09T11:36:30;2.88;;;0.98;;
11042;SDS011;5574;48.786;10.120;2022-09-09T11:39:24;3.17;;;1.40;;
11042;SDS011;5574;48.786;10.120;2022-09-09T11:42:06;3.42;;;1.08;;
11042;SDS011;5574;48.786;10.120;2022-09-09T11:44:41;1.90;;;1.10;;
11042;SDS011;5574;48.786;10.120;2022-09-09T11:47:16;2.78;;;1.10;;
11042;SDS011;5574;48.786;10.120;2022-09-09T11:49:47;2.42;;;0.90;;
11042;SDS011;5574;48.786;10.120;2022-09-09T11:52:19;1.38;;;0.90;;
11042;SDS011;5574;48.786;10.120;2022-09-09T11:54:49;5.32;;;1.17;;
11042;SDS011;5574;48.786;10.120;2022-09-09T11:57:23;2.45;;;0.75;;
11042;SDS011;5574;48.786;10.120;2022-09-09T11:59:53;2.78;;;0.70;;
11042;SDS011;5574;48.786;10.120;2022-09-09T12:02:23;2.75;;;0.90;;
11042;SDS011;5574;48.786;10.120;2022-09-09T12:04:54;1.75;;;1.00;;
11042;SDS011;5574;48.786;10.120;2022-09-09T12:07:25;1.63;;;0.90;;
11042;SDS011;5574;48.786;10.120;2022-09-09T12:10:01;2.55;;;1.00;;
11042;SDS011;5574;48.786;10.120;2022-09-09T12:12:32;2.42;;;0.90;;
11042;SDS011;5574;48.786;10.120;2022-09-09T12:15:03;1.52;;;0.75;;
11042;SDS011;5574;48.786;10.120;2022-09-09T12:17:49;1.83;;;0.80;;
11042;SDS011;5574;48.786;10.120;2022-09-09T12:20:19;1.58;;;0.60;;
11042;SDS011;5574;48.786;10.120;2022-09-09T12:22:51;2.13;;;0.90;;
11042;SDS011;5574;48.786;10.120;2022-09-09T12:25:32;3.17;;;0.90;;
11042;SDS011;5574;48.786;10.120;2022-09-09T12:28:09;2.17;;;0.90;;
11042;SDS011;5574;48.786;10.120;2022-09-09T12:30:48;1.50;;;0.68;;
11042;SDS011;5574;48.786;10.120;2022-09-09T12:33:23;1.00;;;0.50;;
11042;SDS011;5574;48.786;10.120;2022-09-09T12:35:51;2.78;;;0.80;;
11042;SDS011;5574;48.786;10.120;2022-09-09T12:38:22;2.33;;;0.80;;
11042;SDS011;5574;48.786;10.120;2022-09-09T12:40:56;0.93;;;0.60;;
11042;SDS011;5574;48.786;10.120;2022-09-09T12:43:24;4.53;;;0.90;;
11042;SDS011;5574;48.786;10.120;2022-09-09T12:45:52;1.88;;;0.55;;
11042;SDS011;5574;48.786;10.120;2022-09-09T12:48:27;1.08;;;0.70;;
11042;SDS011;5574;48.786;10.120;2022-09-09T12:50:57;1.20;;;0.70;;
11042;SDS011;5574;48.786;10.120;2022-09-09T12:53:26;1.23;;;0.70;;
11042;SDS011;5574;48.786;10.120;2022-09-09T12:55:56;2.63;;;0.98;;
11042;SDS011;5574;48.786;10.120;2022-09-09T12:58:25;1.52;;;0.90;;
11042;SDS011;5574;48.786;10.120;2022-09-09T13:00:57;0.68;;;0.50;;
11042;SDS011;5574;48.786;10.120;2022-09-09T13:03:26;1.60;;;1.10;;
11042;SDS011;5574;48.786;10.120;2022-09-09T13:05:53;1.67;;;0.70;;
11042;SDS011;5574;48.786;10.120;2022-09-09T13:08:25;2.20;;;0.65;;
11042;SDS011;5574;48.786;10.120;2022-09-09T13:10:53;2.88;;;0.63;;
11042;SDS011;5574;48.786;10.120;2022-09-09T13:13:25;2.60;;;1.05;;
11042;SDS011;5574;48.786;10.120;2022-09-09T13:15:55;2.38;;;0.90;;
11042;SDS011;5574;48.786;10.120;2022-09-09T13:18:24;0.63;;;0.50;;
11042;SDS011;5574;48.786;10.120;2022-09-09T13:20:54;1.50;;;0.88;;
11042;SDS011;5574;48.786;10.120;2022-09-09T13:23:22;2.60;;;0.85;;
11042;SDS011;5574;48.786;10.120;2022-09-09T13:25:54;1.73;;;0.73;;
11042;SDS011;5574;48.786;10.120;2022-09-09T13:28:23;2.28;;;0.82;;
11042;SDS011;5574;48.786;10.120;2022-09-09T13:30:56;1.00;;;0.60;;
11042;SDS011;5574;48.786;10.120;2022-09-09T13:33:32;2.75;;;0.60;;
11042;SDS011;5574;48.786;10.120;2022-09-09T13:36:02;0.95;;;0.70;;
11042;SDS011;5574;48.786;10.120;2022-09-09T13:38:31;2.22;;;0.88;;
11042;SDS011;5574;48.786;10.120;2022-09-09T13:41:02;2.45;;;1.08;;
11042;SDS011;5574;48.786;10.120;2022-09-09T13:43:31;1.92;;;0.98;;
11042;SDS011;5574;48.786;10.120;2022-09-09T13:46:01;3.55;;;0.65;;
11042;SDS011;5574;48.786;10.120;2022-09-09T13:48:31;1.40;;;0.45;;
11042;SDS011;5574;48.786;10.120;2022-09-09T13:50:59;1.60;;;0.60;;
11042;SDS011;5574;48.786;10.120;2022-09-09T13:53:29;2.20;;;0.80;;
11042;SDS011;5574;48.786;10.120;2022-09-09T13:55:56;2.08;;;0.70;;
11042;SDS011;5574;48.786;10.120;2022-09-09T13:58:23;1.23;;;0.88;;
11042;SDS011;5574;48.786;10.120;2022-09-09T14:00:51;1.50;;;0.70;;
11042;SDS011;5574;48.786;10.120;2022-09-09T14:03:18;2.95;;;1.27;;
11042;SDS011;5574;48.786;10.120;2022-09-09T14:05:46;1.30;;;0.68;;
11042;SDS011;5574;48.786;10.120;2022-09-09T14:08:15;2.10;;;0.80;;
11042;SDS011;5574;48.786;10.120;2022-09-09T14:10:47;1.63;;;0.80;;
11042;SDS011;5574;48.786;10.120;2022-09-09T14:13:14;1.83;;;0.88;;
11042;SDS011;5574;48.786;10.120;2022-09-09T14:15:40;1.58;;;0.80;;
11042;SDS011;5574;48.786;10.120;2022-09-09T14:18:09;1.30;;;0.63;;
11042;SDS011;5574;48.786;10.120;2022-09-09T14:20:37;1.65;;;0.50;;
11042;SDS011;5574;48.786;10.120;2022-09-09T14:23:05;2.35;;;0.70;;
11042;SDS011;5574;48.786;10.120;2022-09-09T14:25:35;4.18;;;0.70;;
11042;SDS011;5574;48.786;10.120;2022-09-09T14:28:02;6.97;;;1.13;;
11042;SDS011;5574;48.786;10.120;2022-09-09T14:30:29;1.10;;;0.40;;
11042;SDS011;5574;48.786;10.120;2022-09-09T14:32:56;2.28;;;0.70;;
11042;SDS011;5574;48.786;10.120;2022-09-09T14:35:22;1.52;;;0.60;;
11042;SDS011;5574;48.786;10.120;2022-09-09T14:37:49;2.22;;;0.95;;
11042;SDS011;5574;48.786;10.120;2022-09-09T14:40:18;0.80;;;0.75;;
11042;SDS011;5574;48.786;10.120;2022-09-09T14:42:44;0.40;;;0.40;;
11042;SDS011;5574;48.786;10.120;2022-09-09T14:45:11;2.53;;;0.57;;
11042;SDS011;5574;48.786;10.120;2022-09-09T14:47:38;0.55;;;0.35;;
11042;SDS011;5574;48.786;10.120;2022-09-09T14:50:05;2.70;;;0.60;;
11042;SDS011;5574;48.786;10.120;2022-09-09T14:52:33;1.17;;;0.60;;
11042;SDS011;5574;48.786;10.120;2022-09-09T14:55:00;1.67;;;0.60;;
11042;SDS011;5574;48.786;10.120;2022-09-09T14:57:28;1.17;;;0.63;;
11042;SDS011;5574;48.786;10.120;2022-09-09T14:59:55;0.68;;;0.63;;
11042;SDS011;5574;48.786;10.120;2022-09-09T15:02:21;1.52;;;0.80;;
11042;SDS011;5574;48.786;10.120;2022-09-09T15:04:48;2.20;;;0.90;;
11042;SDS011;5574;48.786;10.120;2022-09-09T15:07:16;2.85;;;1.27;;
11042;SDS011;5574;48.786;10.120;2022-09-09T15:09:44;1.67;;;0.30;;
11042;SDS011;5574;48.786;10.120;2022-09-09T15:12:12;1.38;;;0.73;;